Garden Spring, Nevada Weather observations

Data are for 10 minute period ending at time listed.
 Day   Time    Ave.   Ave.  Ave.  Vector   Max.   Stn.    Total    Solar   Ave.  
  of    of     Air    Rel.  Wind   Wind    Wind   Baro.  Precip.   Rad.    Soil  
Year   Day     Temp.  Hum.  Speed  Dir.    Gust   Pres.                    Temp. 
2016   (PST)    F      %     mph   deg.    mph     mb.     in.     W/m2     F    
--------------------------------------------------------------------------------- 
 148    3:00   56.4    47    3.5   294      6.4   849.7    0.00       0    65.7  
 148    4:00   54.5    50    4.0   281      6.1   849.6    0.00       0    65.2  
 148    5:00   54.7    48    3.8   275      5.4   849.5    0.00       0    64.8  
 148    6:00   54.9    47    3.7   288      5.7   849.8    0.00      17    64.5  
 148    7:00   59.3    41    4.3   296     10.3   850.3    0.00      64    64.5  
 148    8:00   62.3    38    3.0   296      7.6   850.5    0.00     197    64.4  
 148    9:00   66.7    33    4.8   140     11.8   850.7    0.00     543    64.9  
 148   10:00   69.3    29    4.4   171     10.6   850.5    0.00     753    65.3  
 148   11:00   69.5    27    4.4   218     13.8   850.2    0.00     527    66.3  
 148   12:00   69.0    26    3.9   121      9.9   850.0    0.00     342    67.7  
 148   13:00   69.6    27    5.6   258     21.1   849.7    0.00     496    69.2  
 148   14:00   70.8    24    4.8   207     12.2   849.2    0.00     653    70.1  
 148   15:00   75.3    20    6.9   242     16.7   848.5    0.00     957    71.8  
 148   16:00   75.9    17    6.8   228     16.7   848.0    0.00     819    72.8  
 148   17:00   74.9    17    6.8   226     16.0   847.7    0.00     490    73.6  
 148   18:00   73.6    17    4.5   200     14.4   847.3    0.00     253    73.8  
 148   19:00   73.3    17    3.7   244     10.9   847.2    0.00     134    73.5  
 148   20:00   67.7    22    4.5   226      9.4   847.6    0.00      17    72.7  
 148   21:00   62.5    27    4.7   268      6.9   848.0    0.00       0    71.8  
 148   22:00   60.8    29    3.7   280      7.0   848.5    0.00       0    71.0  
 148   23:00   58.5    32    4.1   281      7.7   848.7    0.00       0    70.1  
 149    0:00   58.9    31    4.6   277      7.9   848.7    0.00       0    69.3  
 149    1:00   59.1    31    3.8   273      6.0   848.8    0.00       0    68.4  
 149    2:00   57.1    33    4.7   284      8.1   848.8    0.00       0    67.6  

Return to Garden Spring, Nevada graphs page.


Western Regional Climate Center,wrcc@dri.edu